sensor_id;sensor_type;location;lat;lon;timestamp;temperature;humidity
69747;DHT22;57018;50.278;19.134;2022-11-15T00:00:29;7.00;99.90
69747;DHT22;57018;50.278;19.134;2022-11-15T00:02:55;7.30;99.90
69747;DHT22;57018;50.278;19.134;2022-11-15T00:05:21;7.30;99.90
69747;DHT22;57018;50.278;19.134;2022-11-15T00:07:47;7.30;99.90
69747;DHT22;57018;50.278;19.134;2022-11-15T00:10:13;7.20;99.90
69747;DHT22;57018;50.278;19.134;2022-11-15T00:12:39;7.30;99.90
69747;DHT22;57018;50.278;19.134;2022-11-15T00:15:06;7.50;99.90
69747;DHT22;57018;50.278;19.134;2022-11-15T00:17:33;7.30;99.90
69747;DHT22;57018;50.278;19.134;2022-11-15T00:19:59;7.30;99.90
69747;DHT22;57018;50.278;19.134;2022-11-15T00:22:31;7.30;99.90
69747;DHT22;57018;50.278;19.134;2022-11-15T00:24:54;7.30;99.90
69747;DHT22;57018;50.278;19.134;2022-11-15T00:27:20;7.30;99.90
69747;DHT22;57018;50.278;19.134;2022-11-15T00:29:46;7.50;99.90
69747;DHT22;57018;50.278;19.134;2022-11-15T00:32:12;7.20;99.90
69747;DHT22;57018;50.278;19.134;2022-11-15T00:34:38;7.20;99.90
69747;DHT22;57018;50.278;19.134;2022-11-15T00:37:06;7.30;99.90
69747;DHT22;57018;50.278;19.134;2022-11-15T00:39:32;7.40;99.90
69747;DHT22;57018;50.278;19.134;2022-11-15T00:41:58;7.30;99.90
69747;DHT22;57018;50.278;19.134;2022-11-15T00:44:24;7.30;99.90
69747;DHT22;57018;50.278;19.134;2022-11-15T00:46:50;7.10;99.90
69747;DHT22;57018;50.278;19.134;2022-11-15T00:49:16;7.10;99.90
69747;DHT22;57018;50.278;19.134;2022-11-15T00:51:42;7.20;99.90
69747;DHT22;57018;50.278;19.134;2022-11-15T00:54:08;7.20;99.90
69747;DHT22;57018;50.278;19.134;2022-11-15T00:56:34;7.00;99.90
69747;DHT22;57018;50.278;19.134;2022-11-15T00:59:00;7.20;99.90
69747;DHT22;57018;50.278;19.134;2022-11-15T01:01:26;7.20;99.90
69747;DHT22;57018;50.278;19.134;2022-11-15T01:03:52;7.00;99.90
69747;DHT22;57018;50.278;19.134;2022-11-15T01:06:18;6.90;99.90
69747;DHT22;57018;50.278;19.134;2022-11-15T01:08:44;7.10;99.90
69747;DHT22;57018;50.278;19.134;2022-11-15T01:11:12;7.10;99.90
69747;DHT22;57018;50.278;19.134;2022-11-15T01:13:39;6.90;99.90
69747;DHT22;57018;50.278;19.134;2022-11-15T01:16:12;6.90;99.90
69747;DHT22;57018;50.278;19.134;2022-11-15T01:18:38;6.80;99.90
69747;DHT22;57018;50.278;19.134;2022-11-15T01:21:11;6.80;99.90
69747;DHT22;57018;50.278;19.134;2022-11-15T01:23:34;6.90;99.90
69747;DHT22;57018;50.278;19.134;2022-11-15T01:26:01;6.80;99.90
69747;DHT22;57018;50.278;19.134;2022-11-15T01:28:32;6.90;99.90
69747;DHT22;57018;50.278;19.134;2022-11-15T01:31:05;6.90;99.90
69747;DHT22;57018;50.278;19.134;2022-11-15T01:33:34;6.80;99.90
69747;DHT22;57018;50.278;19.134;2022-11-15T01:36:05;6.80;99.90
69747;DHT22;57018;50.278;19.134;2022-11-15T01:38:31;6.90;99.90
69747;DHT22;57018;50.278;19.134;2022-11-15T01:40:57;6.70;99.90
69747;DHT22;57018;50.278;19.134;2022-11-15T01:43:35;6.80;99.90
69747;DHT22;57018;50.278;19.134;2022-11-15T01:46:22;6.90;99.90
69747;DHT22;57018;50.278;19.134;2022-11-15T01:48:48;6.70;99.90
69747;DHT22;57018;50.278;19.134;2022-11-15T01:51:17;6.70;99.90
69747;DHT22;57018;50.278;19.134;2022-11-15T01:53:47;6.80;99.90
69747;DHT22;57018;50.278;19.134;2022-11-15T01:56:17;6.80;99.90
69747;DHT22;57018;50.278;19.134;2022-11-15T01:58:44;6.70;99.90
69747;DHT22;57018;50.278;19.134;2022-11-15T02:01:12;6.80;99.90
69747;DHT22;57018;50.278;19.134;2022-11-15T02:06:31;6.50;99.90
69747;DHT22;57018;50.278;19.134;2022-11-15T02:08:58;6.80;99.90
69747;DHT22;57018;50.278;19.134;2022-11-15T02:11:25;6.70;99.90
69747;DHT22;57018;50.278;19.134;2022-11-15T02:13:52;6.70;99.90
69747;DHT22;57018;50.278;19.134;2022-11-15T02:19:17;6.60;99.90
69747;DHT22;57018;50.278;19.134;2022-11-15T02:27:29;6.60;99.90
69747;DHT22;57018;50.278;19.134;2022-11-15T02:35:09;6.40;99.90
69747;DHT22;57018;50.278;19.134;2022-11-15T02:42:53;6.70;99.90
69747;DHT22;57018;50.278;19.134;2022-11-15T02:45:54;6.40;99.90
69747;DHT22;57018;50.278;19.134;2022-11-15T02:48:21;6.40;99.90
69747;DHT22;57018;50.278;19.134;2022-11-15T02:50:49;6.60;99.90
69747;DHT22;57018;50.278;19.134;2022-11-15T02:53:15;6.50;99.90
69747;DHT22;57018;50.278;19.134;2022-11-15T02:55:43;6.60;99.90
69747;DHT22;57018;50.278;19.134;2022-11-15T03:09:28;6.40;99.90
69747;DHT22;57018;50.278;19.134;2022-11-15T03:11:54;6.50;99.90
69747;DHT22;57018;50.278;19.134;2022-11-15T03:15:01;6.20;99.90
69747;DHT22;57018;50.278;19.134;2022-11-15T03:17:25;6.50;99.90
69747;DHT22;57018;50.278;19.134;2022-11-15T03:19:54;6.30;99.90
69747;DHT22;57018;50.278;19.134;2022-11-15T03:22:23;6.40;99.90
69747;DHT22;57018;50.278;19.134;2022-11-15T03:24:56;6.50;99.90
69747;DHT22;57018;50.278;19.134;2022-11-15T03:27:25;6.50;99.90
69747;DHT22;57018;50.278;19.134;2022-11-15T03:30:00;6.50;99.90
69747;DHT22;57018;50.278;19.134;2022-11-15T03:32:29;6.30;99.90
69747;DHT22;57018;50.278;19.134;2022-11-15T03:34:58;6.50;99.90
69747;DHT22;57018;50.278;19.134;2022-11-15T03:37:33;6.50;99.90
69747;DHT22;57018;50.278;19.134;2022-11-15T03:39:58;6.70;99.90
69747;DHT22;57018;50.278;19.134;2022-11-15T03:45:19;6.60;99.90
69747;DHT22;57018;50.278;19.134;2022-11-15T03:50:18;6.40;99.90
69747;DHT22;57018;50.278;19.134;2022-11-15T03:52:47;6.50;99.90
69747;DHT22;57018;50.278;19.134;2022-11-15T03:55:19;6.60;99.90
69747;DHT22;57018;50.278;19.134;2022-11-15T03:57:43;6.80;99.90
69747;DHT22;57018;50.278;19.134;2022-11-15T04:00:10;6.80;99.90
69747;DHT22;57018;50.278;19.134;2022-11-15T04:02:37;6.60;99.90
69747;DHT22;57018;50.278;19.134;2022-11-15T04:05:03;6.90;99.90
69747;DHT22;57018;50.278;19.134;2022-11-15T04:07:30;6.60;99.90
69747;DHT22;57018;50.278;19.134;2022-11-15T04:09:56;6.60;99.90
69747;DHT22;57018;50.278;19.134;2022-11-15T04:12:32;6.60;99.90
69747;DHT22;57018;50.278;19.134;2022-11-15T04:15:05;6.50;99.90
69747;DHT22;57018;50.278;19.134;2022-11-15T04:20:18;6.50;99.90
69747;DHT22;57018;50.278;19.134;2022-11-15T04:23:07;6.40;99.90
69747;DHT22;57018;50.278;19.134;2022-11-15T04:25:54;6.50;99.90
69747;DHT22;57018;50.278;19.134;2022-11-15T04:28:20;6.40;99.90
69747;DHT22;57018;50.278;19.134;2022-11-15T04:30:47;6.30;99.90
69747;DHT22;57018;50.278;19.134;2022-11-15T04:33:14;6.20;99.90
69747;DHT22;57018;50.278;19.134;2022-11-15T04:35:41;6.40;99.90
69747;DHT22;57018;50.278;19.134;2022-11-15T04:38:10;6.30;99.90
69747;DHT22;57018;50.278;19.134;2022-11-15T04:40:37;6.50;99.90
69747;DHT22;57018;50.278;19.134;2022-11-15T04:43:04;6.50;99.90
69747;DHT22;57018;50.278;19.134;2022-11-15T04:45:30;6.40;99.90
69747;DHT22;57018;50.278;19.134;2022-11-15T04:47:56;6.50;99.90
69747;DHT22;57018;50.278;19.134;2022-11-15T04:50:23;6.60;99.90
69747;DHT22;57018;50.278;19.134;2022-11-15T04:52:53;6.40;99.90
69747;DHT22;57018;50.278;19.134;2022-11-15T04:55:20;6.50;99.90
69747;DHT22;57018;50.278;19.134;2022-11-15T04:57:46;6.40;99.90
69747;DHT22;57018;50.278;19.134;2022-11-15T05:00:14;6.50;99.90
69747;DHT22;57018;50.278;19.134;2022-11-15T05:02:41;6.30;99.90
69747;DHT22;57018;50.278;19.134;2022-11-15T05:05:26;6.30;99.90
69747;DHT22;57018;50.278;19.134;2022-11-15T05:07:52;6.40;99.90
69747;DHT22;57018;50.278;19.134;2022-11-15T05:10:18;6.30;99.90
69747;DHT22;57018;50.278;19.134;2022-11-15T05:12:44;6.20;99.90
69747;DHT22;57018;50.278;19.134;2022-11-15T05:15:09;6.40;99.90
69747;DHT22;57018;50.278;19.134;2022-11-15T05:17:35;6.30;99.90
69747;DHT22;57018;50.278;19.134;2022-11-15T05:20:01;6.30;99.90
69747;DHT22;57018;50.278;19.134;2022-11-15T05:22:27;6.30;99.90
69747;DHT22;57018;50.278;19.134;2022-11-15T05:24:54;6.20;99.90
69747;DHT22;57018;50.278;19.134;2022-11-15T05:27:20;6.30;99.90
69747;DHT22;57018;50.278;19.134;2022-11-15T05:29:45;6.30;99.90
69747;DHT22;57018;50.278;19.134;2022-11-15T05:32:12;6.30;99.90
69747;DHT22;57018;50.278;19.134;2022-11-15T05:34:38;6.30;99.90
69747;DHT22;57018;50.278;19.134;2022-11-15T05:37:05;6.40;99.90
69747;DHT22;57018;50.278;19.134;2022-11-15T05:39:31;6.20;99.90
69747;DHT22;57018;50.278;19.134;2022-11-15T05:42:06;6.20;99.90
69747;DHT22;57018;50.278;19.134;2022-11-15T05:44:31;6.40;99.90
69747;DHT22;57018;50.278;19.134;2022-11-15T05:46:58;6.30;99.90
69747;DHT22;57018;50.278;19.134;2022-11-15T05:49:27;6.40;99.90
69747;DHT22;57018;50.278;19.134;2022-11-15T05:51:54;6.30;99.90
69747;DHT22;57018;50.278;19.134;2022-11-15T05:54:21;6.20;99.90
69747;DHT22;57018;50.278;19.134;2022-11-15T05:56:49;6.00;99.90
69747;DHT22;57018;50.278;19.134;2022-11-15T05:59:15;6.30;99.90
69747;DHT22;57018;50.278;19.134;2022-11-15T06:01:42;6.40;99.90
69747;DHT22;57018;50.278;19.134;2022-11-15T06:04:08;6.30;99.90
69747;DHT22;57018;50.278;19.134;2022-11-15T06:06:35;6.40;99.90
69747;DHT22;57018;50.278;19.134;2022-11-15T06:09:01;6.40;99.90
69747;DHT22;57018;50.278;19.134;2022-11-15T06:11:27;6.20;99.90
69747;DHT22;57018;50.278;19.134;2022-11-15T06:13:53;6.10;99.90
69747;DHT22;57018;50.278;19.134;2022-11-15T06:16:20;6.10;99.90
69747;DHT22;57018;50.278;19.134;2022-11-15T06:18:46;6.10;99.90
69747;DHT22;57018;50.278;19.134;2022-11-15T06:21:12;6.00;99.90
69747;DHT22;57018;50.278;19.134;2022-11-15T06:23:39;6.00;99.90
69747;DHT22;57018;50.278;19.134;2022-11-15T06:26:05;6.10;99.90
69747;DHT22;57018;50.278;19.134;2022-11-15T06:28:32;6.00;99.90
69747;DHT22;57018;50.278;19.134;2022-11-15T06:31:03;6.30;99.90
69747;DHT22;57018;50.278;19.134;2022-11-15T06:33:29;6.20;99.90
69747;DHT22;57018;50.278;19.134;2022-11-15T06:35:55;6.20;99.90
69747;DHT22;57018;50.278;19.134;2022-11-15T06:38:21;6.40;99.90
69747;DHT22;57018;50.278;19.134;2022-11-15T06:40:47;6.10;99.90
69747;DHT22;57018;50.278;19.134;2022-11-15T06:43:13;6.00;99.90
69747;DHT22;57018;50.278;19.134;2022-11-15T06:45:40;6.00;99.90
69747;DHT22;57018;50.278;19.134;2022-11-15T06:48:06;6.20;99.90
69747;DHT22;57018;50.278;19.134;2022-11-15T06:50:32;6.10;99.90
69747;DHT22;57018;50.278;19.134;2022-11-15T06:53:00;6.10;99.90
69747;DHT22;57018;50.278;19.134;2022-11-15T06:55:27;6.40;99.90
69747;DHT22;57018;50.278;19.134;2022-11-15T06:57:53;6.40;99.90
69747;DHT22;57018;50.278;19.134;2022-11-15T07:00:20;6.30;99.90
69747;DHT22;57018;50.278;19.134;2022-11-15T07:02:48;6.30;99.90
69747;DHT22;57018;50.278;19.134;2022-11-15T07:05:16;6.40;99.90
69747;DHT22;57018;50.278;19.134;2022-11-15T07:07:43;6.30;99.90
69747;DHT22;57018;50.278;19.134;2022-11-15T07:10:09;6.50;99.90
69747;DHT22;57018;50.278;19.134;2022-11-15T07:12:35;6.60;99.90
69747;DHT22;57018;50.278;19.134;2022-11-15T07:15:02;6.60;99.90
69747;DHT22;57018;50.278;19.134;2022-11-15T07:17:28;6.70;99.90
69747;DHT22;57018;50.278;19.134;2022-11-15T07:19:54;6.70;99.90
69747;DHT22;57018;50.278;19.134;2022-11-15T07:22:20;6.70;99.90
69747;DHT22;57018;50.278;19.134;2022-11-15T07:24:46;7.00;99.90
69747;DHT22;57018;50.278;19.134;2022-11-15T07:27:12;7.10;99.90
69747;DHT22;57018;50.278;19.134;2022-11-15T07:29:38;7.00;99.90
69747;DHT22;57018;50.278;19.134;2022-11-15T07:32:04;6.80;99.90
69747;DHT22;57018;50.278;19.134;2022-11-15T07:34:30;6.90;99.90
69747;DHT22;57018;50.278;19.134;2022-11-15T07:36:56;6.90;99.60
69747;DHT22;57018;50.278;19.134;2022-11-15T07:39:22;6.90;99.90
69747;DHT22;57018;50.278;19.134;2022-11-15T07:41:48;7.00;99.90
69747;DHT22;57018;50.278;19.134;2022-11-15T07:44:15;6.90;99.90
69747;DHT22;57018;50.278;19.134;2022-11-15T07:46:41;7.30;98.80
69747;DHT22;57018;50.278;19.134;2022-11-15T07:49:07;7.20;98.00
69747;DHT22;57018;50.278;19.134;2022-11-15T07:51:33;7.50;97.70
69747;DHT22;57018;50.278;19.134;2022-11-15T07:53:59;7.70;97.70
69747;DHT22;57018;50.278;19.134;2022-11-15T07:56:25;7.70;97.00
69747;DHT22;57018;50.278;19.134;2022-11-15T07:58:51;7.60;96.40
69747;DHT22;57018;50.278;19.134;2022-11-15T08:01:17;7.90;95.40
69747;DHT22;57018;50.278;19.134;2022-11-15T08:03:43;7.80;95.10
69747;DHT22;57018;50.278;19.134;2022-11-15T08:06:09;8.00;94.80
69747;DHT22;57018;50.278;19.134;2022-11-15T08:08:35;8.10;94.20
69747;DHT22;57018;50.278;19.134;2022-11-15T08:11:02;8.20;93.00
69747;DHT22;57018;50.278;19.134;2022-11-15T08:13:28;8.20;93.50
69747;DHT22;57018;50.278;19.134;2022-11-15T08:16:02;8.30;93.60
69747;DHT22;57018;50.278;19.134;2022-11-15T08:18:26;8.50;92.80
69747;DHT22;57018;50.278;19.134;2022-11-15T08:20:52;8.30;92.40
69747;DHT22;57018;50.278;19.134;2022-11-15T08:23:18;8.00;92.20
69747;DHT22;57018;50.278;19.134;2022-11-15T08:25:44;8.40;92.20
69747;DHT22;57018;50.278;19.134;2022-11-15T08:28:10;8.40;91.50
69747;DHT22;57018;50.278;19.134;2022-11-15T08:30:38;8.30;91.40
69747;DHT22;57018;50.278;19.134;2022-11-15T08:33:12;8.50;91.10
69747;DHT22;57018;50.278;19.134;2022-11-15T08:35:40;8.50;90.90
69747;DHT22;57018;50.278;19.134;2022-11-15T08:38:06;8.70;90.70
69747;DHT22;57018;50.278;19.134;2022-11-15T08:40:32;8.60;90.70
69747;DHT22;57018;50.278;19.134;2022-11-15T08:42:58;8.60;91.30
69747;DHT22;57018;50.278;19.134;2022-11-15T08:45:26;8.80;90.80
69747;DHT22;57018;50.278;19.134;2022-11-15T08:47:52;8.80;90.90
69747;DHT22;57018;50.278;19.134;2022-11-15T08:50:19;8.80;90.70
69747;DHT22;57018;50.278;19.134;2022-11-15T08:52:45;8.80;90.70
69747;DHT22;57018;50.278;19.134;2022-11-15T08:55:11;9.00;90.50
69747;DHT22;57018;50.278;19.134;2022-11-15T08:57:37;9.20;89.70
69747;DHT22;57018;50.278;19.134;2022-11-15T09:00:04;9.10;89.90
69747;DHT22;57018;50.278;19.134;2022-11-15T09:02:32;9.20;90.20
69747;DHT22;57018;50.278;19.134;2022-11-15T09:04:58;9.10;90.50
69747;DHT22;57018;50.278;19.134;2022-11-15T09:07:24;9.10;90.20
69747;DHT22;57018;50.278;19.134;2022-11-15T09:09:50;9.10;90.00
69747;DHT22;57018;50.278;19.134;2022-11-15T09:12:16;9.20;90.40
69747;DHT22;57018;50.278;19.134;2022-11-15T09:14:42;9.20;90.70
69747;DHT22;57018;50.278;19.134;2022-11-15T09:17:09;9.30;90.40
69747;DHT22;57018;50.278;19.134;2022-11-15T09:19:35;9.20;89.90
69747;DHT22;57018;50.278;19.134;2022-11-15T09:22:01;9.20;90.50
69747;DHT22;57018;50.278;19.134;2022-11-15T09:24:30;9.00;91.20
69747;DHT22;57018;50.278;19.134;2022-11-15T09:26:56;9.10;90.90
69747;DHT22;57018;50.278;19.134;2022-11-15T09:29:22;9.10;91.00
69747;DHT22;57018;50.278;19.134;2022-11-15T09:31:48;9.10;91.10
69747;DHT22;57018;50.278;19.134;2022-11-15T09:34:14;8.80;91.30
69747;DHT22;57018;50.278;19.134;2022-11-15T09:36:40;9.00;91.60
69747;DHT22;57018;50.278;19.134;2022-11-15T09:39:07;8.90;91.80
69747;DHT22;57018;50.278;19.134;2022-11-15T09:47:41;8.90;93.00
69747;DHT22;57018;50.278;19.134;2022-11-15T09:50:11;9.00;92.70
69747;DHT22;57018;50.278;19.134;2022-11-15T09:52:39;9.10;92.80
69747;DHT22;57018;50.278;19.134;2022-11-15T09:55:11;9.30;92.40
69747;DHT22;57018;50.278;19.134;2022-11-15T09:57:50;9.30;92.60
69747;DHT22;57018;50.278;19.134;2022-11-15T10:03:14;9.60;92.30
69747;DHT22;57018;50.278;19.134;2022-11-15T10:05:47;9.60;92.30
69747;DHT22;57018;50.278;19.134;2022-11-15T10:11:06;9.70;91.80
69747;DHT22;57018;50.278;19.134;2022-11-15T10:13:35;9.80;91.70
69747;DHT22;57018;50.278;19.134;2022-11-15T10:24:16;10.10;91.70
69747;DHT22;57018;50.278;19.134;2022-11-15T10:26:46;10.10;91.70
69747;DHT22;57018;50.278;19.134;2022-11-15T10:29:18;10.30;91.40
69747;DHT22;57018;50.278;19.134;2022-11-15T10:31:46;10.50;91.10
69747;DHT22;57018;50.278;19.134;2022-11-15T10:34:21;10.70;90.70
69747;DHT22;57018;50.278;19.134;2022-11-15T10:36:55;10.90;90.40
69747;DHT22;57018;50.278;19.134;2022-11-15T10:39:29;11.10;90.00
69747;DHT22;57018;50.278;19.134;2022-11-15T10:41:56;11.40;89.60
69747;DHT22;57018;50.278;19.134;2022-11-15T10:44:30;11.60;88.70
69747;DHT22;57018;50.278;19.134;2022-11-15T10:47:06;12.00;87.90
69747;DHT22;57018;50.278;19.134;2022-11-15T10:49:35;12.20;86.70
69747;DHT22;57018;50.278;19.134;2022-11-15T10:57:25;12.70;83.50
69747;DHT22;57018;50.278;19.134;2022-11-15T10:59:57;12.80;82.90
69747;DHT22;57018;50.278;19.134;2022-11-15T11:02:38;12.80;83.10
69747;DHT22;57018;50.278;19.134;2022-11-15T11:05:25;12.90;82.90
69747;DHT22;57018;50.278;19.134;2022-11-15T11:07:35;12.70;82.10
69747;DHT22;57018;50.278;19.134;2022-11-15T11:10:05;12.70;82.80
69747;DHT22;57018;50.278;19.134;2022-11-15T11:12:33;12.50;84.30
69747;DHT22;57018;50.278;19.134;2022-11-15T11:15:02;12.20;84.70
69747;DHT22;57018;50.278;19.134;2022-11-15T11:17:48;12.20;85.20
69747;DHT22;57018;50.278;19.134;2022-11-15T11:22:53;11.80;86.60
69747;DHT22;57018;50.278;19.134;2022-11-15T11:28:05;11.60;87.40
69747;DHT22;57018;50.278;19.134;2022-11-15T11:30:41;11.50;88.20
69747;DHT22;57018;50.278;19.134;2022-11-15T11:33:17;11.50;88.50
69747;DHT22;57018;50.278;19.134;2022-11-15T11:41:47;11.60;89.20
69747;DHT22;57018;50.278;19.134;2022-11-15T11:44:34;11.60;88.90
69747;DHT22;57018;50.278;19.134;2022-11-15T11:47:11;11.80;89.10
69747;DHT22;57018;50.278;19.134;2022-11-15T11:52:32;11.80;89.10
69747;DHT22;57018;50.278;19.134;2022-11-15T11:55:15;11.80;88.90
69747;DHT22;57018;50.278;19.134;2022-11-15T11:57:51;12.00;88.80
69747;DHT22;57018;50.278;19.134;2022-11-15T12:00:20;12.00;88.10
69747;DHT22;57018;50.278;19.134;2022-11-15T12:02:52;12.10;87.90
69747;DHT22;57018;50.278;19.134;2022-11-15T12:05:39;12.20;87.50
69747;DHT22;57018;50.278;19.134;2022-11-15T12:07:51;12.30;87.40
69747;DHT22;57018;50.278;19.134;2022-11-15T12:10:24;12.40;87.10
69747;DHT22;57018;50.278;19.134;2022-11-15T12:13:10;12.40;87.20
69747;DHT22;57018;50.278;19.134;2022-11-15T12:18:15;12.50;86.30
69747;DHT22;57018;50.278;19.134;2022-11-15T12:23:26;12.60;86.50
69747;DHT22;57018;50.278;19.134;2022-11-15T12:26:14;12.60;86.10
69747;DHT22;57018;50.278;19.134;2022-11-15T12:31:24;12.60;86.30
69747;DHT22;57018;50.278;19.134;2022-11-15T12:33:55;12.50;86.10
69747;DHT22;57018;50.278;19.134;2022-11-15T12:36:32;12.60;85.90
69747;DHT22;57018;50.278;19.134;2022-11-15T12:39:10;12.80;85.00
69747;DHT22;57018;50.278;19.134;2022-11-15T12:41:39;12.90;84.80
69747;DHT22;57018;50.278;19.134;2022-11-15T12:52:07;13.90;81.90
69747;DHT22;57018;50.278;19.134;2022-11-15T12:59:56;14.40;80.10
69747;DHT22;57018;50.278;19.134;2022-11-15T13:10:35;14.30;80.30
69747;DHT22;57018;50.278;19.134;2022-11-15T13:13:04;14.20;80.30
69747;DHT22;57018;50.278;19.134;2022-11-15T13:15:37;14.20;80.20
69747;DHT22;57018;50.278;19.134;2022-11-15T13:18:36;14.20;80.40
69747;DHT22;57018;50.278;19.134;2022-11-15T13:21:04;14.20;80.30
69747;DHT22;57018;50.278;19.134;2022-11-15T13:23:37;13.80;81.10
69747;DHT22;57018;50.278;19.134;2022-11-15T13:26:14;13.90;81.20
69747;DHT22;57018;50.278;19.134;2022-11-15T13:28:45;14.00;81.20
69747;DHT22;57018;50.278;19.134;2022-11-15T13:33:55;14.00;81.00
69747;DHT22;57018;50.278;19.134;2022-11-15T13:36:25;13.90;81.00
69747;DHT22;57018;50.278;19.134;2022-11-15T13:39:02;13.90;81.10
69747;DHT22;57018;50.278;19.134;2022-11-15T13:41:30;13.80;81.20
69747;DHT22;57018;50.278;19.134;2022-11-15T13:43:59;13.70;81.30
69747;DHT22;57018;50.278;19.134;2022-11-15T13:46:27;13.50;81.40
69747;DHT22;57018;50.278;19.134;2022-11-15T13:49:07;13.50;81.30
69747;DHT22;57018;50.278;19.134;2022-11-15T13:57:03;13.10;82.50
69747;DHT22;57018;50.278;19.134;2022-11-15T13:59:36;12.90;82.90
69747;DHT22;57018;50.278;19.134;2022-11-15T14:02:18;12.80;83.40
69747;DHT22;57018;50.278;19.134;2022-11-15T14:04:56;12.70;83.70
69747;DHT22;57018;50.278;19.134;2022-11-15T14:07:28;12.60;85.50
69747;DHT22;57018;50.278;19.134;2022-11-15T14:09:56;12.50;85.80
69747;DHT22;57018;50.278;19.134;2022-11-15T14:12:33;12.50;86.30
69747;DHT22;57018;50.278;19.134;2022-11-15T14:15:18;12.40;86.70
69747;DHT22;57018;50.278;19.134;2022-11-15T14:17:35;12.30;86.80
69747;DHT22;57018;50.278;19.134;2022-11-15T14:20:46;12.30;87.10
69747;DHT22;57018;50.278;19.134;2022-11-15T14:22:35;12.20;87.50
69747;DHT22;57018;50.278;19.134;2022-11-15T14:25:24;12.20;87.60
69747;DHT22;57018;50.278;19.134;2022-11-15T14:27:35;12.10;87.90
69747;DHT22;57018;50.278;19.134;2022-11-15T14:30:02;12.10;88.40
69747;DHT22;57018;50.278;19.134;2022-11-15T14:32:37;12.10;88.60
69747;DHT22;57018;50.278;19.134;2022-11-15T14:35:02;12.00;88.60
69747;DHT22;57018;50.278;19.134;2022-11-15T14:37:33;11.90;89.20
69747;DHT22;57018;50.278;19.134;2022-11-15T14:40:02;11.90;89.40
69747;DHT22;57018;50.278;19.134;2022-11-15T14:42:29;11.90;89.50
69747;DHT22;57018;50.278;19.134;2022-11-15T14:44:55;11.80;89.70
69747;DHT22;57018;50.278;19.134;2022-11-15T14:47:21;11.90;89.80
69747;DHT22;57018;50.278;19.134;2022-11-15T14:49:48;11.90;89.90
69747;DHT22;57018;50.278;19.134;2022-11-15T14:52:30;11.70;89.90
69747;DHT22;57018;50.278;19.134;2022-11-15T14:54:58;11.70;90.40
69747;DHT22;57018;50.278;19.134;2022-11-15T14:57:27;11.60;90.40
69747;DHT22;57018;50.278;19.134;2022-11-15T14:59:53;11.50;91.10
69747;DHT22;57018;50.278;19.134;2022-11-15T15:02:22;11.50;90.90
69747;DHT22;57018;50.278;19.134;2022-11-15T15:04:49;11.50;91.00
69747;DHT22;57018;50.278;19.134;2022-11-15T15:07:16;11.50;91.20
69747;DHT22;57018;50.278;19.134;2022-11-15T15:09:44;11.40;91.00
69747;DHT22;57018;50.278;19.134;2022-11-15T15:12:16;11.30;92.40
69747;DHT22;57018;50.278;19.134;2022-11-15T15:14:48;11.20;91.70
69747;DHT22;57018;50.278;19.134;2022-11-15T15:17:10;11.30;92.00
69747;DHT22;57018;50.278;19.134;2022-11-15T15:19:37;11.30;92.00
69747;DHT22;57018;50.278;19.134;2022-11-15T15:22:03;11.30;92.20
69747;DHT22;57018;50.278;19.134;2022-11-15T15:24:29;11.20;92.40
69747;DHT22;57018;50.278;19.134;2022-11-15T15:26:55;11.20;92.60
69747;DHT22;57018;50.278;19.134;2022-11-15T15:29:21;11.10;93.10
69747;DHT22;57018;50.278;19.134;2022-11-15T15:31:47;11.20;93.10
69747;DHT22;57018;50.278;19.134;2022-11-15T15:34:13;11.10;93.20
69747;DHT22;57018;50.278;19.134;2022-11-15T15:36:39;11.10;93.00
69747;DHT22;57018;50.278;19.134;2022-11-15T15:39:08;11.10;93.30
69747;DHT22;57018;50.278;19.134;2022-11-15T15:41:35;11.10;93.50
69747;DHT22;57018;50.278;19.134;2022-11-15T15:44:01;11.10;93.80
69747;DHT22;57018;50.278;19.134;2022-11-15T15:46:27;11.00;93.80
69747;DHT22;57018;50.278;19.134;2022-11-15T15:48:53;11.10;93.60
69747;DHT22;57018;50.278;19.134;2022-11-15T15:51:19;11.10;93.80
69747;DHT22;57018;50.278;19.134;2022-11-15T15:53:46;11.00;94.30
69747;DHT22;57018;50.278;19.134;2022-11-15T15:56:12;11.00;94.10
69747;DHT22;57018;50.278;19.134;2022-11-15T15:58:38;11.10;94.40
69747;DHT22;57018;50.278;19.134;2022-11-15T16:01:05;11.00;94.90
69747;DHT22;57018;50.278;19.134;2022-11-15T16:03:31;10.90;94.40
69747;DHT22;57018;50.278;19.134;2022-11-15T16:05:57;10.90;94.60
69747;DHT22;57018;50.278;19.134;2022-11-15T16:08:24;10.90;94.70
69747;DHT22;57018;50.278;19.134;2022-11-15T16:10:55;10.90;94.50
69747;DHT22;57018;50.278;19.134;2022-11-15T16:13:21;10.90;94.50
69747;DHT22;57018;50.278;19.134;2022-11-15T16:15:50;10.90;94.80
69747;DHT22;57018;50.278;19.134;2022-11-15T16:18:17;10.80;94.50
69747;DHT22;57018;50.278;19.134;2022-11-15T16:20:48;10.80;94.50
69747;DHT22;57018;50.278;19.134;2022-11-15T16:23:19;10.80;94.70
69747;DHT22;57018;50.278;19.134;2022-11-15T16:25:49;10.70;95.00
69747;DHT22;57018;50.278;19.134;2022-11-15T16:28:28;10.70;94.50
69747;DHT22;57018;50.278;19.134;2022-11-15T16:33:31;10.70;94.80
69747;DHT22;57018;50.278;19.134;2022-11-15T16:35:57;10.70;94.30
69747;DHT22;57018;50.278;19.134;2022-11-15T16:38:23;10.50;95.40
69747;DHT22;57018;50.278;19.134;2022-11-15T16:40:49;10.50;95.40
69747;DHT22;57018;50.278;19.134;2022-11-15T16:43:15;10.50;95.20
69747;DHT22;57018;50.278;19.134;2022-11-15T16:45:41;10.50;95.30
69747;DHT22;57018;50.278;19.134;2022-11-15T16:48:18;10.60;95.20
69747;DHT22;57018;50.278;19.134;2022-11-15T16:50:37;10.50;95.60
69747;DHT22;57018;50.278;19.134;2022-11-15T16:53:06;10.50;95.20
69747;DHT22;57018;50.278;19.134;2022-11-15T16:55:32;10.40;95.50
69747;DHT22;57018;50.278;19.134;2022-11-15T16:57:58;10.50;95.70
69747;DHT22;57018;50.278;19.134;2022-11-15T17:00:24;10.50;95.60
69747;DHT22;57018;50.278;19.134;2022-11-15T17:02:51;10.40;95.80
69747;DHT22;57018;50.278;19.134;2022-11-15T17:05:20;10.30;96.20
69747;DHT22;57018;50.278;19.134;2022-11-15T17:07:49;10.10;96.10
69747;DHT22;57018;50.278;19.134;2022-11-15T17:10:17;10.20;95.80
69747;DHT22;57018;50.278;19.134;2022-11-15T17:12:43;10.30;96.30
69747;DHT22;57018;50.278;19.134;2022-11-15T17:15:11;10.20;95.90
69747;DHT22;57018;50.278;19.134;2022-11-15T17:17:38;10.30;95.80
69747;DHT22;57018;50.278;19.134;2022-11-15T17:20:05;10.30;96.10
69747;DHT22;57018;50.278;19.134;2022-11-15T17:22:34;10.40;96.00
69747;DHT22;57018;50.278;19.134;2022-11-15T17:25:02;10.30;96.10
69747;DHT22;57018;50.278;19.134;2022-11-15T17:27:29;10.30;96.00
69747;DHT22;57018;50.278;19.134;2022-11-15T17:29:55;10.30;96.00
69747;DHT22;57018;50.278;19.134;2022-11-15T17:32:21;10.30;96.10
69747;DHT22;57018;50.278;19.134;2022-11-15T17:34:47;10.20;95.80